createdAt,value
2022-09-26T00:01:22.257Z,3.63
2022-09-26T00:03:58.172Z,10.23
2022-09-26T00:06:25.756Z,4.88
2022-09-26T00:08:53.973Z,5.25
2022-09-26T00:11:23.420Z,5.68
2022-09-26T00:13:53.617Z,5.05
2022-09-26T00:16:20.906Z,5.78
2022-09-26T00:18:53.290Z,7.82
2022-09-26T00:21:20.535Z,8.02
2022-09-26T00:23:47.222Z,5.35
2022-09-26T00:26:15.949Z,11.40
2022-09-26T00:28:45.857Z,6.88
2022-09-26T00:31:18.575Z,8.15
2022-09-26T00:33:45.469Z,9.60
2022-09-26T00:36:11.946Z,9.93
2022-09-26T00:38:40.104Z,7.22
2022-09-26T00:41:08.291Z,4.25
2022-09-26T00:43:36.318Z,8.38
2022-09-26T00:46:11.568Z,5.50
2022-09-26T00:48:41.770Z,5.00
2022-09-26T00:51:09.383Z,6.35
2022-09-26T00:53:41.317Z,5.85
2022-09-26T00:56:22.618Z,8.18
2022-09-26T00:58:54.915Z,8.55
2022-09-26T01:01:21.892Z,5.47
2022-09-26T01:03:50.249Z,7.72
2022-09-26T01:06:17.747Z,5.63
2022-09-26T01:08:50.972Z,8.00
2022-09-26T01:11:18.349Z,7.38
2022-09-26T01:13:45.369Z,9.20
2022-09-26T01:16:11.927Z,7.80
2022-09-26T01:18:38.918Z,8.70
2022-09-26T01:21:43.970Z,7.78
2022-09-26T01:24:34.706Z,8.40
2022-09-26T01:27:34.743Z,10.93
2022-09-26T01:30:11.807Z,11.13
2022-09-26T01:33:21.981Z,9.23
2022-09-26T01:36:03.721Z,5.32
2022-09-26T01:38:42.107Z,6.93
2022-09-26T01:41:39.506Z,9.07
2022-09-26T01:44:43.982Z,13.13
2022-09-26T01:47:29.212Z,9.32
2022-09-26T01:50:16.831Z,9.57
2022-09-26T01:53:05.514Z,7.43
2022-09-26T01:55:38.445Z,9.38
2022-09-26T01:58:33.752Z,9.95
2022-09-26T02:01:03.906Z,10.60
2022-09-26T02:03:36.166Z,7.90
2022-09-26T02:06:08.368Z,9.45
2022-09-26T02:08:44.450Z,9.65
2022-09-26T02:11:17.199Z,7.35
2022-09-26T02:13:55.602Z,14.15
2022-09-26T02:16:46.694Z,10.60
2022-09-26T02:19:13.612Z,10.00
2022-09-26T02:21:42.121Z,11.52
2022-09-26T02:24:08.592Z,14.02
2022-09-26T02:26:35.524Z,12.02
2022-09-26T02:29:02.255Z,11.07
2022-09-26T02:31:35.369Z,11.27
2022-09-26T02:34:04.404Z,14.73
2022-09-26T02:36:34.425Z,11.05
2022-09-26T02:39:02.281Z,10.95
2022-09-26T02:42:09.197Z,13.95
2022-09-26T02:44:57.476Z,12.85
2022-09-26T02:47:42.841Z,11.43
2022-09-26T02:50:28.067Z,11.93
2022-09-26T02:53:34.129Z,11.90
2022-09-26T02:56:14.259Z,13.90
2022-09-26T02:58:51.250Z,11.50
2022-09-26T03:01:26.953Z,9.13
2022-09-26T03:06:33.078Z,11.00
2022-09-26T03:09:00.099Z,14.23
2022-09-26T03:11:28.830Z,13.57
2022-09-26T03:13:57.867Z,13.38
2022-09-26T03:16:29.107Z,15.45
2022-09-26T03:19:14.349Z,15.73
2022-09-26T03:21:41.413Z,11.57
2022-09-26T03:24:08.308Z,14.60
2022-09-26T03:26:36.036Z,9.73
2022-09-26T03:29:03.566Z,12.90
2022-09-26T03:31:32.169Z,11.13
2022-09-26T03:34:04.920Z,14.43
2022-09-26T03:36:32.247Z,13.95
2022-09-26T03:39:00.640Z,10.23
2022-09-26T03:41:47.376Z,12.20
2022-09-26T03:44:28.029Z,12.48
2022-09-26T03:47:20.463Z,11.38
2022-09-26T03:49:50.406Z,12.63
2022-09-26T03:52:17.014Z,11.15
2022-09-26T03:54:44.827Z,10.35
2022-09-26T03:57:13.032Z,12.43
2022-09-26T03:59:46.368Z,11.20
2022-09-26T04:02:13.876Z,9.93
2022-09-26T04:04:44.705Z,8.85
2022-09-26T04:07:11.280Z,10.20
2022-09-26T04:09:38.222Z,9.85
2022-09-26T04:12:05.023Z,10.98
2022-09-26T04:14:34.194Z,8.20
2022-09-26T04:17:00.704Z,9.63
2022-09-26T04:19:32.220Z,7.43
2022-09-26T04:21:59.379Z,9.27
2022-09-26T04:24:26.102Z,9.57
2022-09-26T04:26:53.957Z,8.73
2022-09-26T04:29:20.741Z,8.82
2022-09-26T04:32:07.487Z,13.02
2022-09-26T04:34:45.019Z,10.98
2022-09-26T04:37:13.264Z,11.13
2022-09-26T04:39:41.685Z,12.77
2022-09-26T04:42:08.108Z,13.15
2022-09-26T04:44:35.355Z,13.00
2022-09-26T04:47:01.851Z,12.82
2022-09-26T04:49:47.069Z,12.13
2022-09-26T04:52:13.711Z,11.82
2022-09-26T04:54:40.219Z,11.32
2022-09-26T04:57:06.668Z,12.13
2022-09-26T04:59:35.112Z,12.82
2022-09-26T05:02:03.475Z,11.32
2022-09-26T05:04:36.227Z,11.93
2022-09-26T05:07:02.774Z,10.45
2022-09-26T05:09:35.879Z,11.85
2022-09-26T05:12:14.137Z,9.18
2022-09-26T05:14:44.618Z,9.73
2022-09-26T05:17:11.658Z,10.45
2022-09-26T05:19:39.148Z,13.85
2022-09-26T05:22:24.269Z,11.60
2022-09-26T05:25:09.287Z,8.52
2022-09-26T05:27:37.013Z,9.43
2022-09-26T05:30:03.904Z,9.15
2022-09-26T05:32:30.428Z,11.07
2022-09-26T05:34:57.595Z,9.13
2022-09-26T05:37:26.173Z,7.65
2022-09-26T05:40:12.051Z,8.00
2022-09-26T05:42:44.125Z,7.95
2022-09-26T05:45:10.871Z,10.70
2022-09-26T05:47:37.513Z,11.80
2022-09-26T05:50:10.222Z,10.85
2022-09-26T05:52:39.159Z,9.50
2022-09-26T05:55:07.737Z,10.35
2022-09-26T05:58:05.093Z,10.55
2022-09-26T06:03:17.634Z,8.07
2022-09-26T06:06:10.328Z,10.00
2022-09-26T06:08:38.531Z,8.27
2022-09-26T06:11:29.439Z,9.27
2022-09-26T06:13:58.267Z,9.50
2022-09-26T06:16:24.887Z,8.68
2022-09-26T06:18:52.599Z,8.85
2022-09-26T06:21:20.615Z,8.45
2022-09-26T06:23:51.299Z,6.43
2022-09-26T06:26:21.791Z,5.60
2022-09-26T06:28:51.747Z,7.35
2022-09-26T06:31:19.752Z,8.50
2022-09-26T06:34:05.404Z,8.07
2022-09-26T06:36:53.722Z,8.57
2022-09-26T06:39:20.252Z,9.15
2022-09-26T06:41:47.379Z,6.45
2022-09-26T06:44:28.245Z,8.02
2022-09-26T06:47:29.493Z,6.28
2022-09-26T06:50:11.621Z,6.70
2022-09-26T06:52:44.029Z,6.68
2022-09-26T06:55:11.855Z,9.65
2022-09-26T06:57:40.491Z,9.75
2022-09-26T07:00:12.554Z,6.30
2022-09-26T07:02:59.309Z,9.98
2022-09-26T07:05:45.154Z,7.85
2022-09-26T07:08:12.568Z,5.97
2022-09-26T07:10:39.290Z,9.15
2022-09-26T07:13:10.620Z,7.38
2022-09-26T07:15:37.537Z,7.72
2022-09-26T07:18:19.151Z,6.70
2022-09-26T07:21:05.025Z,5.72
2022-09-26T07:23:47.766Z,6.43
2022-09-26T07:26:15.851Z,5.82
2022-09-26T07:28:42.337Z,6.88
2022-09-26T07:31:08.945Z,6.13
2022-09-26T07:33:46.106Z,7.78
2022-09-26T07:36:12.722Z,5.88
2022-09-26T07:38:40.260Z,5.30
2022-09-26T07:41:11.211Z,4.38
2022-09-26T07:44:41.185Z,6.05
2022-09-26T07:49:30.164Z,6.18
2022-09-26T07:52:10.034Z,6.43
2022-09-26T07:55:18.229Z,6.80
2022-09-26T07:58:07.888Z,3.08
2022-09-26T08:01:03.445Z,3.85
2022-09-26T08:03:48.363Z,8.50
2022-09-26T08:06:32.859Z,7.72
2022-09-26T08:08:59.848Z,5.53
2022-09-26T08:11:45.128Z,6.05
2022-09-26T08:14:37.525Z,5.82
2022-09-26T08:17:32.439Z,4.30
2022-09-26T08:20:00.489Z,6.50
2022-09-26T08:22:27.876Z,5.00
2022-09-26T08:24:55.309Z,3.67
2022-09-26T08:27:43.662Z,5.25
2022-09-26T08:30:11.678Z,4.38
2022-09-26T08:32:38.956Z,4.55
2022-09-26T08:35:06.330Z,5.88
2022-09-26T08:37:35.841Z,5.40
2022-09-26T08:40:26.227Z,3.13
2022-09-26T08:43:18.287Z,5.70
2022-09-26T08:46:37.691Z,4.03
2022-09-26T08:49:26.743Z,3.50
2022-09-26T08:51:56.797Z,6.10
2022-09-26T08:54:35.447Z,3.28
2022-09-26T08:57:24.449Z,3.47
2022-09-26T08:59:53.497Z,6.85
2022-09-26T09:02:45.285Z,6.72
2022-09-26T09:05:55.506Z,5.47
2022-09-26T09:08:25.207Z,6.78
2022-09-26T09:11:21.783Z,5.43
2022-09-26T09:14:22.168Z,6.88
2022-09-26T09:17:21.567Z,5.22
2022-09-26T09:20:16.065Z,7.55
2022-09-26T09:22:55.042Z,5.65
2022-09-26T09:25:29.545Z,6.60
2022-09-26T09:28:30.333Z,6.82
2022-09-26T09:31:01.306Z,6.13
2022-09-26T09:33:44.805Z,4.78
2022-09-26T09:36:34.606Z,8.05
2022-09-26T09:39:23.191Z,6.28
2022-09-26T09:42:26.076Z,5.80
2022-09-26T09:45:06.868Z,7.47
2022-09-26T09:47:39.238Z,6.20
2022-09-26T09:50:16.583Z,4.50
2022-09-26T09:53:00.471Z,5.88
2022-09-26T09:56:19.846Z,5.38
2022-09-26T09:59:04.294Z,7.70
2022-09-26T10:01:43.740Z,7.47
2022-09-26T10:04:54.421Z,4.90
2022-09-26T10:07:20.969Z,4.68
2022-09-26T10:10:13.082Z,8.55
2022-09-26T10:12:58.354Z,4.85
2022-09-26T10:15:58.067Z,5.75
2022-09-26T10:19:03.413Z,5.93
2022-09-26T10:21:34.002Z,7.72
2022-09-26T10:24:03.824Z,5.95
2022-09-26T10:26:41.388Z,8.82
2022-09-26T10:29:35.320Z,4.82
2022-09-26T10:32:03.523Z,5.28
2022-09-26T10:34:33.891Z,6.22
2022-09-26T10:37:24.178Z,5.43
2022-09-26T10:40:17.281Z,5.72
2022-09-26T10:42:47.859Z,6.40
2022-09-26T10:45:17.902Z,4.65
2022-09-26T10:48:06.162Z,4.13
2022-09-26T10:50:55.644Z,3.72
2022-09-26T10:53:45.836Z,5.90
2022-09-26T10:56:26.149Z,5.65
2022-09-26T10:58:59.176Z,3.20
2022-09-26T11:01:31.385Z,4.18
2022-09-26T11:04:40.004Z,2.08
2022-09-26T11:07:35.951Z,2.35
2022-09-26T11:10:32.255Z,2.75
2022-09-26T11:13:24.741Z,4.03
2022-09-26T11:16:03.778Z,4.07
2022-09-26T11:18:50.142Z,2.25
2022-09-26T11:21:33.574Z,3.97
2022-09-26T11:24:19.620Z,11.50
2022-09-26T11:27:04.374Z,4.50
2022-09-26T11:29:43.127Z,4.82
2022-09-26T11:32:24.228Z,3.92
2022-09-26T11:35:04.158Z,5.57
2022-09-26T11:37:38.796Z,3.10
2022-09-26T11:40:38.099Z,3.83
2022-09-26T11:43:16.942Z,5.68
2022-09-26T11:45:52.630Z,2.97
2022-09-26T11:48:57.809Z,4.25
2022-09-26T11:52:01.334Z,3.22
2022-09-26T11:54:56.918Z,4.38
2022-09-26T11:57:37.194Z,3.05
2022-09-26T12:00:15.627Z,3.53
2022-09-26T12:02:48.766Z,3.58
2022-09-26T12:05:35.285Z,5.25
2022-09-26T12:08:47.520Z,5.47
2022-09-26T12:11:42.326Z,4.72
2022-09-26T12:14:36.895Z,3.83
2022-09-26T12:17:19.572Z,5.13
2022-09-26T12:20:26.287Z,2.10
2022-09-26T12:23:21.857Z,3.33
2022-09-26T12:25:56.005Z,4.50
2022-09-26T12:28:22.400Z,8.40
2022-09-26T12:30:51.965Z,2.97
2022-09-26T12:33:40.524Z,3.83
2022-09-26T12:36:28.496Z,3.35
2022-09-26T12:39:29.808Z,2.67
2022-09-26T12:42:08.864Z,7.25
2022-09-26T12:44:38.345Z,6.25
2022-09-26T12:47:37.031Z,3.83
2022-09-26T12:50:14.538Z,4.30
2022-09-26T12:53:10.196Z,6.75
2022-09-26T12:56:33.796Z,7.38
2022-09-26T12:59:12.267Z,5.95
2022-09-26T13:01:48.775Z,7.35
2022-09-26T13:04:32.942Z,9.05
2022-09-26T13:07:20.015Z,4.88
2022-09-26T13:10:08.555Z,6.57
2022-09-26T13:12:38.857Z,4.28
2022-09-26T13:15:32.357Z,5.25
2022-09-26T13:18:05.682Z,5.50
2022-09-26T13:20:41.106Z,14.65
2022-09-26T13:23:30.285Z,4.13
2022-09-26T13:26:05.886Z,6.32
2022-09-26T13:28:37.786Z,3.22
2022-09-26T13:31:14.780Z,5.13
2022-09-26T13:33:44.532Z,3.72
2022-09-26T13:36:12.917Z,11.40
2022-09-26T13:38:52.868Z,6.53
2022-09-26T13:41:38.145Z,7.20
2022-09-26T13:44:22.013Z,6.22
2022-09-26T13:47:13.367Z,7.32
2022-09-26T13:50:33.924Z,7.78
2022-09-26T13:53:25.219Z,3.17
2022-09-26T13:56:30.167Z,6.32
2022-09-26T13:59:14.380Z,6.85
2022-09-26T14:02:18.306Z,6.78
2022-09-26T14:04:50.442Z,4.97
2022-09-26T14:07:44.958Z,9.02
2022-09-26T14:10:36.229Z,5.28
2022-09-26T14:13:18.105Z,6.93
2022-09-26T14:15:47.761Z,10.00
2022-09-26T14:18:29.486Z,6.05
2022-09-26T14:21:04.866Z,7.22
2022-09-26T14:23:45.034Z,7.88
2022-09-26T14:26:27.242Z,4.78
2022-09-26T14:28:55.746Z,7.60
2022-09-26T14:31:25.380Z,6.65
2022-09-26T14:34:11.100Z,10.40
2022-09-26T14:36:37.934Z,7.55
2022-09-26T14:39:05.558Z,5.68
2022-09-26T14:41:34.754Z,9.80
2022-09-26T14:44:04.389Z,8.25
2022-09-26T14:46:35.556Z,9.10
2022-09-26T14:49:07.039Z,6.93
2022-09-26T14:51:37.510Z,9.80
2022-09-26T14:54:43.245Z,11.93
2022-09-26T14:57:21.374Z,8.18
2022-09-26T14:59:48.756Z,7.22
2022-09-26T15:02:24.493Z,8.73
2022-09-26T15:05:12.619Z,9.90
2022-09-26T15:07:49.103Z,5.80
2022-09-26T15:10:23.320Z,7.95
2022-09-26T15:13:10.365Z,7.40
2022-09-26T15:15:48.863Z,9.20
2022-09-26T15:18:27.236Z,8.18
2022-09-26T15:21:10.895Z,9.90
2022-09-26T15:23:50.449Z,9.35
2022-09-26T15:26:24.952Z,8.90
2022-09-26T15:28:54.240Z,11.80
2022-09-26T15:31:24.493Z,9.95
2022-09-26T15:34:00.736Z,9.93
2022-09-26T15:36:29.040Z,8.63
2022-09-26T15:38:55.883Z,10.55
2022-09-26T15:41:41.266Z,9.75
2022-09-26T15:44:19.115Z,7.63
2022-09-26T15:46:48.927Z,10.32
2022-09-26T15:49:22.915Z,7.15
2022-09-26T15:51:55.479Z,9.25
2022-09-26T15:54:29.522Z,10.05
2022-09-26T15:57:00.860Z,10.55
2022-09-26T15:59:41.402Z,12.10
2022-09-26T16:02:30.259Z,11.55
2022-09-26T16:04:57.575Z,8.68
2022-09-26T16:07:27.920Z,8.02
2022-09-26T16:09:56.162Z,10.15
2022-09-26T16:12:28.066Z,13.23
2022-09-26T16:14:54.835Z,10.48
2022-09-26T16:17:25.869Z,12.85
2022-09-26T16:20:05.194Z,9.27
2022-09-26T16:22:39.922Z,11.05
2022-09-26T16:25:15.737Z,11.95
2022-09-26T16:27:43.187Z,13.68
2022-09-26T16:30:23.681Z,16.23
2022-09-26T16:33:15.241Z,15.30
2022-09-26T16:35:47.215Z,11.50
2022-09-26T16:38:26.963Z,10.25
2022-09-26T16:40:56.502Z,12.35
2022-09-26T16:43:31.898Z,12.82
2022-09-26T16:46:17.382Z,9.85
2022-09-26T16:48:50.243Z,13.55
2022-09-26T16:51:40.829Z,12.65
2022-09-26T16:54:20.718Z,10.65
2022-09-26T16:56:53.753Z,13.57
2022-09-26T16:59:26.807Z,17.25
2022-09-26T17:01:56.666Z,12.40
2022-09-26T17:04:31.169Z,18.08
2022-09-26T17:06:59.337Z,17.13
2022-09-26T17:09:30.726Z,13.05
2022-09-26T17:12:02.496Z,14.95
2022-09-26T17:14:34.625Z,12.73
2022-09-26T17:17:07.291Z,13.88
2022-09-26T17:19:40.298Z,13.77
2022-09-26T17:22:14.177Z,11.65
2022-09-26T17:24:42.367Z,10.18
2022-09-26T17:27:15.178Z,10.10
2022-09-26T17:29:48.630Z,9.25
2022-09-26T17:32:31.935Z,13.50
2022-09-26T17:35:01.968Z,10.20
2022-09-26T17:37:29.050Z,9.15
2022-09-26T17:39:56.098Z,6.68
2022-09-26T17:42:23.542Z,8.55
2022-09-26T17:44:50.527Z,7.55
2022-09-26T17:47:19.069Z,9.00
2022-09-26T17:49:55.971Z,8.48
2022-09-26T17:52:28.834Z,5.32
2022-09-26T17:54:58.661Z,4.05
2022-09-26T17:57:28.077Z,4.70
2022-09-26T17:59:54.869Z,6.78
2022-09-26T18:02:32.993Z,4.30
2022-09-26T18:05:03.384Z,5.22
2022-09-26T18:07:39.956Z,3.38
2022-09-26T18:10:15.443Z,4.07
2022-09-26T18:12:42.146Z,2.33
2022-09-26T18:15:16.141Z,3.13
2022-09-26T18:17:43.502Z,2.42
2022-09-26T18:20:10.073Z,4.70
2022-09-26T18:22:36.804Z,3.20
2022-09-26T18:25:06.683Z,2.63
2022-09-26T18:27:40.499Z,2.65
2022-09-26T18:30:07.916Z,8.20
2022-09-26T18:32:38.937Z,2.00
2022-09-26T18:35:14.103Z,1.88
2022-09-26T18:37:40.679Z,4.05
2022-09-26T18:40:11.232Z,3.45
2022-09-26T18:42:38.093Z,5.18
2022-09-26T18:45:06.045Z,4.20
2022-09-26T18:47:37.840Z,2.03
2022-09-26T18:50:05.970Z,2.80
2022-09-26T18:52:32.534Z,4.00
2022-09-26T18:55:20.214Z,3.65
2022-09-26T18:58:05.998Z,2.95
2022-09-26T19:00:32.586Z,2.78
2022-09-26T19:02:59.908Z,3.63
2022-09-26T19:05:27.028Z,4.07
2022-09-26T19:07:53.609Z,2.08
2022-09-26T19:10:22.849Z,4.78
2022-09-26T19:12:49.724Z,2.28
2022-09-26T19:15:17.855Z,4.22
2022-09-26T19:17:44.548Z,2.38
2022-09-26T19:20:11.146Z,2.97
2022-09-26T19:22:37.762Z,3.17
2022-09-26T19:25:04.712Z,3.78
2022-09-26T19:27:38.781Z,4.70
2022-09-26T19:30:21.286Z,4.03
2022-09-26T19:32:50.818Z,5.47
2022-09-26T19:35:29.337Z,3.92
2022-09-26T19:37:56.908Z,3.97
2022-09-26T19:40:24.539Z,6.38
2022-09-26T19:42:51.883Z,6.03
2022-09-26T19:45:19.223Z,6.15
2022-09-26T19:47:50.454Z,4.65
2022-09-26T19:50:22.731Z,3.70
2022-09-26T19:52:51.072Z,8.52
2022-09-26T19:55:21.064Z,4.93
2022-09-26T19:57:47.725Z,5.85
2022-09-26T20:00:14.975Z,7.03
2022-09-26T20:02:42.417Z,6.80
2022-09-26T20:05:24.009Z,8.45
2022-09-26T20:07:51.538Z,9.10
2022-09-26T20:10:25.117Z,7.53
2022-09-26T20:12:52.101Z,8.10
2022-09-26T20:15:22.616Z,11.38
2022-09-26T20:17:49.688Z,7.82
2022-09-26T20:20:23.234Z,10.35
2022-09-26T20:22:51.446Z,12.15
2022-09-26T20:25:27.114Z,7.60
2022-09-26T20:27:55.277Z,7.32
2022-09-26T20:30:41.423Z,11.20
2022-09-26T20:33:09.636Z,11.82
2022-09-26T20:35:40.312Z,12.25
2022-09-26T20:38:14.779Z,10.05
2022-09-26T20:40:41.489Z,11.68
2022-09-26T20:43:14.420Z,10.82
2022-09-26T20:45:43.984Z,10.48
2022-09-26T20:48:20.896Z,8.02
2022-09-26T20:50:48.456Z,14.93
2022-09-26T20:53:19.743Z,15.32
2022-09-26T20:55:47.584Z,10.45
2022-09-26T20:58:14.591Z,15.27
2022-09-26T21:00:42.850Z,12.98
2022-09-26T21:03:15.518Z,13.93
2022-09-26T21:05:42.927Z,13.60
2022-09-26T21:08:18.199Z,16.02
2022-09-26T21:10:44.717Z,15.45
2022-09-26T21:13:11.266Z,16.05
2022-09-26T21:15:41.355Z,14.40
2022-09-26T21:18:30.004Z,19.00
2022-09-26T21:21:03.965Z,13.32
2022-09-26T21:23:43.465Z,17.55
2022-09-26T21:26:17.414Z,15.07
2022-09-26T21:28:44.052Z,15.60
2022-09-26T21:31:22.108Z,16.42
2022-09-26T21:33:49.245Z,18.15
2022-09-26T21:36:15.979Z,18.75
2022-09-26T21:38:43.887Z,18.92
2022-09-26T21:41:12.054Z,19.48
2022-09-26T21:43:43.216Z,15.32
2022-09-26T21:46:09.869Z,17.75
2022-09-26T21:48:36.544Z,13.00
2022-09-26T21:51:04.280Z,18.48
2022-09-26T21:53:47.458Z,17.50
2022-09-26T21:56:19.007Z,19.98
2022-09-26T21:58:46.171Z,17.88
2022-09-26T22:01:14.040Z,15.68
2022-09-26T22:03:41.347Z,14.30
2022-09-26T22:06:09.422Z,17.23
2022-09-26T22:08:37.443Z,16.50
2022-09-26T22:11:04.653Z,15.07
2022-09-26T22:13:32.961Z,17.45
2022-09-26T22:16:10.385Z,16.40
2022-09-26T22:18:38.942Z,16.02
2022-09-26T22:21:10.418Z,22.02
2022-09-26T22:23:37.823Z,16.75
2022-09-26T22:26:04.703Z,14.82
2022-09-26T22:28:31.237Z,15.90
2022-09-26T22:31:04.968Z,19.35
2022-09-26T22:33:31.831Z,16.42
2022-09-26T22:35:58.605Z,16.75
2022-09-26T22:38:25.621Z,16.67
2022-09-26T22:41:10.792Z,17.23
2022-09-26T22:43:37.490Z,17.58
2022-09-26T22:46:09.972Z,18.70
2022-09-26T22:48:46.059Z,27.60
2022-09-26T22:51:14.177Z,35.75
2022-09-26T22:53:42.224Z,32.38
2022-09-26T22:56:14.900Z,18.17
2022-09-26T22:58:45.182Z,20.15
2022-09-26T23:01:14.587Z,13.50
2022-09-26T23:03:41.618Z,13.35
2022-09-26T23:06:09.454Z,13.73
2022-09-26T23:08:36.527Z,13.73
2022-09-26T23:11:04.302Z,13.45
2022-09-26T23:13:32.052Z,14.10
2022-09-26T23:16:28.580Z,13.50
2022-09-26T23:18:55.617Z,13.65
2022-09-26T23:21:23.969Z,13.13
2022-09-26T23:23:52.814Z,14.07
2022-09-26T23:26:31.588Z,12.00
2022-09-26T23:28:59.042Z,12.85
2022-09-26T23:31:27.609Z,15.30
2022-09-26T23:33:54.551Z,12.07
2022-09-26T23:36:21.690Z,13.20
2022-09-26T23:38:48.229Z,9.15
2022-09-26T23:41:15.060Z,11.88
2022-09-26T23:43:42.430Z,11.45
2022-09-26T23:46:09.759Z,8.60
2022-09-26T23:48:36.587Z,10.50
2022-09-26T23:51:03.845Z,11.98
2022-09-26T23:53:30.712Z,13.73
2022-09-26T23:56:08.856Z,11.82
2022-09-26T23:58:37.041Z,6.32
